FFT1660 KEWR-KMCO
Flight info
| Callsign | FFT1660 |
|---|---|
| Flight time | 2h 13m |
| Altitude | 38000 |
| Route | ELVAE NECCK WHITE Q409 CRPLR Q85 LPERD GTOUT1 |
| Aircraft | A320/M-SDE3FGHIRWY/LB1 |
Departure
| Time | 2026-05-06 14:48 |
|---|---|
| Airport | Newark Liberty International Airport (KEWR) |
Arrival
| Time | 2026-05-06 17:01 |
|---|---|
| Airport | Orlando International Airport (KMCO) |
| Time | Latitude | Longitude | Altitude | Speed | Heading |
|---|---|---|---|---|---|
| 2026-05-06 14:29 | 40.68721 | -74.17664 | 22 ft | 0 kts | 6° |
| 2026-05-06 14:32 | 40.68710 | -74.17666 | 24 ft | 3 kts | 8° |
| 2026-05-06 14:33 | 40.68690 | -74.17670 | 23 ft | 3 kts | 14° |
| 2026-05-06 14:33 | 40.68670 | -74.17678 | 22 ft | 3 kts | 26° |
| 2026-05-06 14:33 | 40.68655 | -74.17691 | 22 ft | 3 kts | 56° |
| 2026-05-06 14:33 | 40.68649 | -74.17707 | 22 ft | 2 kts | 110° |
| 2026-05-06 14:34 | 40.68652 | -74.17715 | 22 ft | 0 kts | 112° |
| 2026-05-06 14:41 | 40.68646 | -74.17697 | 24 ft | 4 kts | 112° |
| 2026-05-06 14:41 | 40.68629 | -74.17646 | 22 ft | 9 kts | 114° |
| 2026-05-06 14:42 | 40.68599 | -74.17567 | 22 ft | 11 kts | 115° |
| 2026-05-06 14:42 | 40.68570 | -74.17478 | 23 ft | 9 kts | 103° |
| 2026-05-06 14:42 | 40.68609 | -74.17425 | 23 ft | 9 kts | 25° |
| 2026-05-06 14:42 | 40.68675 | -74.17383 | 23 ft | 12 kts | 27° |
| 2026-05-06 14:43 | 40.68696 | -74.17369 | 23 ft | 12 kts | 27° |
| 2026-05-06 14:43 | 40.68743 | -74.17342 | 23 ft | 13 kts | 25° |
| 2026-05-06 14:43 | 40.68832 | -74.17285 | 23 ft | 15 kts | 26° |
| 2026-05-06 14:43 | 40.68932 | -74.17220 | 24 ft | 17 kts | 25° |
| 2026-05-06 14:44 | 40.69048 | -74.17146 | 21 ft | 19 kts | 25° |
| 2026-05-06 14:44 | 40.69170 | -74.17068 | 22 ft | 15 kts | 27° |
| 2026-05-06 14:44 | 40.69270 | -74.17005 | 22 ft | 17 kts | 26° |
| 2026-05-06 14:45 | 40.69497 | -74.16862 | 23 ft | 20 kts | 26° |
| 2026-05-06 14:45 | 40.69615 | -74.16786 | 22 ft | 14 kts | 24° |
| 2026-05-06 14:45 | 40.69710 | -74.16727 | 22 ft | 16 kts | 25° |
| 2026-05-06 14:45 | 40.69816 | -74.16658 | 21 ft | 15 kts | 26° |
| 2026-05-06 14:46 | 40.69871 | -74.16622 | 21 ft | 8 kts | 27° |
| 2026-05-06 14:46 | 40.69906 | -74.16586 | 21 ft | 6 kts | 75° |
| 2026-05-06 14:46 | 40.69907 | -74.16581 | 21 ft | 0 kts | 81° |
| 2026-05-06 14:46 | 40.69907 | -74.16573 | 21 ft | 3 kts | 82° |
| 2026-05-06 14:47 | 40.69906 | -74.16509 | 20 ft | 17 kts | 94° |
| 2026-05-06 14:47 | 40.69855 | -74.16472 | 20 ft | 9 kts | 206° |
| 2026-05-06 14:47 | 40.69834 | -74.16486 | 22 ft | 4 kts | 206° |
| 2026-05-06 14:47 | 40.69793 | -74.16512 | 20 ft | 14 kts | 206° |
| 2026-05-06 14:48 | 40.69530 | -74.16678 | 25 ft | 75 kts | 206° |
| 2026-05-06 14:48 | 40.68873 | -74.17098 | 23 ft | 131 kts | 206° |
| 2026-05-06 14:48 | 40.67971 | -74.17671 | 479 ft | 141 kts | 207° |
| 2026-05-06 14:48 | 40.67119 | -74.18237 | 1247 ft | 141 kts | 208° |
| 2026-05-06 14:49 | 40.66180 | -74.18864 | 1714 ft | 162 kts | 210° |
| 2026-05-06 14:49 | 40.65121 | -74.19650 | 2197 ft | 186 kts | 211° |
| 2026-05-06 14:49 | 40.63928 | -74.20561 | 2724 ft | 210 kts | 213° |
| 2026-05-06 14:49 | 40.62629 | -74.21556 | 3498 ft | 219 kts | 213° |
| 2026-05-06 14:50 | 40.61321 | -74.22551 | 4503 ft | 221 kts | 212° |
| 2026-05-06 14:50 | 40.59979 | -74.23567 | 5444 ft | 224 kts | 212° |
| 2026-05-06 14:50 | 40.58602 | -74.24613 | 6326 ft | 230 kts | 212° |
| 2026-05-06 14:50 | 40.57200 | -74.25680 | 7190 ft | 235 kts | 212° |
| 2026-05-06 14:51 | 40.55725 | -74.26648 | 8086 ft | 241 kts | 201° |
| 2026-05-06 14:51 | 40.54040 | -74.26980 | 8945 ft | 252 kts | 183° |
| 2026-05-06 14:51 | 40.52283 | -74.26499 | 9818 ft | 265 kts | 166° |
| 2026-05-06 14:51 | 40.50546 | -74.25627 | 10397 ft | 279 kts | 166° |
| 2026-05-06 14:52 | 40.48645 | -74.24689 | 10725 ft | 301 kts | 166° |
| 2026-05-06 14:52 | 40.46651 | -74.23702 | 11329 ft | 310 kts | 166° |
| 2026-05-06 14:52 | 40.44612 | -74.22686 | 12047 ft | 316 kts | 166° |
| 2026-05-06 14:52 | 40.42535 | -74.21651 | 12806 ft | 320 kts | 167° |
| 2026-05-06 14:53 | 40.40438 | -74.20607 | 13561 ft | 324 kts | 167° |
| 2026-05-06 14:53 | 40.38339 | -74.19568 | 14226 ft | 329 kts | 167° |
| 2026-05-06 14:53 | 40.36180 | -74.18498 | 14836 ft | 334 kts | 167° |
| 2026-05-06 14:53 | 40.33985 | -74.17421 | 15438 ft | 338 kts | 169° |
| 2026-05-06 14:54 | 40.31710 | -74.16735 | 16015 ft | 334 kts | 180° |
| 2026-05-06 14:54 | 40.29395 | -74.16679 | 16627 ft | 331 kts | 191° |
| 2026-05-06 14:54 | 40.27130 | -74.17205 | 17237 ft | 331 kts | 199° |
| 2026-05-06 14:54 | 40.24866 | -74.17897 | 17814 ft | 336 kts | 199° |
| 2026-05-06 14:55 | 40.22596 | -74.18586 | 18352 ft | 342 kts | 199° |
| 2026-05-06 14:55 | 40.20265 | -74.19288 | 18878 ft | 346 kts | 199° |
| 2026-05-06 14:55 | 40.17900 | -74.19998 | 19419 ft | 350 kts | 199° |
| 2026-05-06 14:55 | 40.15522 | -74.20712 | 19955 ft | 353 kts | 199° |
| 2026-05-06 14:56 | 40.13118 | -74.21431 | 20487 ft | 356 kts | 199° |
| 2026-05-06 14:56 | 40.10678 | -74.22158 | 21016 ft | 360 kts | 199° |
| 2026-05-06 14:56 | 40.08215 | -74.22891 | 21531 ft | 363 kts | 199° |
| 2026-05-06 14:56 | 40.05770 | -74.23616 | 22036 ft | 366 kts | 199° |
| 2026-05-06 14:57 | 40.03268 | -74.24361 | 22528 ft | 369 kts | 200° |
| 2026-05-06 14:57 | 40.00850 | -74.25402 | 23011 ft | 364 kts | 210° |
| 2026-05-06 14:57 | 39.98654 | -74.27039 | 23518 ft | 361 kts | 220° |
| 2026-05-06 14:57 | 39.96629 | -74.28976 | 23920 ft | 363 kts | 221° |
| 2026-05-06 14:58 | 39.94581 | -74.30941 | 24328 ft | 366 kts | 221° |
| 2026-05-06 14:58 | 39.92525 | -74.32911 | 24738 ft | 368 kts | 221° |
| 2026-05-06 14:58 | 39.90481 | -74.34859 | 25137 ft | 371 kts | 221° |
| 2026-05-06 14:58 | 39.88378 | -74.36854 | 25538 ft | 374 kts | 222° |
| 2026-05-06 14:59 | 39.86256 | -74.38863 | 25884 ft | 377 kts | 222° |
| 2026-05-06 14:59 | 39.84122 | -74.40883 | 26221 ft | 380 kts | 223° |
| 2026-05-06 14:59 | 39.81992 | -74.42944 | 26590 ft | 380 kts | 227° |
| 2026-05-06 14:59 | 39.80115 | -74.45290 | 26959 ft | 378 kts | 232° |
| 2026-05-06 15:00 | 39.78271 | -74.47752 | 27342 ft | 380 kts | 232° |
| 2026-05-06 15:00 | 39.76419 | -74.50221 | 27722 ft | 382 kts | 232° |
| 2026-05-06 15:00 | 39.74556 | -74.52702 | 28084 ft | 385 kts | 232° |
| 2026-05-06 15:00 | 39.72678 | -74.55195 | 28463 ft | 387 kts | 232° |
| 2026-05-06 15:01 | 39.70779 | -74.57710 | 28822 ft | 390 kts | 233° |
| 2026-05-06 15:01 | 39.68891 | -74.60204 | 29181 ft | 392 kts | 233° |
| 2026-05-06 15:01 | 39.66978 | -74.62735 | 29538 ft | 395 kts | 233° |
| 2026-05-06 15:01 | 39.65045 | -74.65293 | 29903 ft | 397 kts | 233° |
| 2026-05-06 15:02 | 39.63094 | -74.67867 | 30232 ft | 400 kts | 233° |
| 2026-05-06 15:02 | 39.61140 | -74.70438 | 30541 ft | 401 kts | 233° |
| 2026-05-06 15:02 | 39.59198 | -74.72990 | 30831 ft | 402 kts | 233° |
| 2026-05-06 15:02 | 39.57226 | -74.75582 | 31132 ft | 404 kts | 233° |
| 2026-05-06 15:03 | 39.55250 | -74.78182 | 31428 ft | 404 kts | 233° |
| 2026-05-06 15:03 | 39.53278 | -74.80771 | 31837 ft | 403 kts | 233° |
| 2026-05-06 15:03 | 39.51307 | -74.83354 | 32268 ft | 400 kts | 234° |
| 2026-05-06 15:03 | 39.49351 | -74.85918 | 32697 ft | 398 kts | 234° |
| 2026-05-06 15:04 | 39.47433 | -74.88430 | 33089 ft | 396 kts | 234° |
| 2026-05-06 15:04 | 39.45496 | -74.90970 | 33452 ft | 395 kts | 234° |
| 2026-05-06 15:04 | 39.43564 | -74.93499 | 33850 ft | 394 kts | 234° |
| 2026-05-06 15:04 | 39.41633 | -74.96023 | 34215 ft | 393 kts | 235° |
| 2026-05-06 15:05 | 39.39704 | -74.98541 | 34578 ft | 391 kts | 235° |
| 2026-05-06 15:05 | 39.37816 | -75.01002 | 34917 ft | 389 kts | 236° |
| 2026-05-06 15:05 | 39.35916 | -75.03482 | 35242 ft | 387 kts | 236° |
| 2026-05-06 15:05 | 39.34019 | -75.05954 | 35567 ft | 386 kts | 236° |
| 2026-05-06 15:06 | 39.32132 | -75.08409 | 35934 ft | 383 kts | 236° |
| 2026-05-06 15:06 | 39.30259 | -75.10838 | 36305 ft | 379 kts | 236° |
| 2026-05-06 15:06 | 39.29016 | -75.12438 | 36491 ft | 379 kts | 237° |
| 2026-05-06 15:06 | 39.27136 | -75.14820 | 36730 ft | 379 kts | 236° |
| 2026-05-06 15:07 | 39.25239 | -75.17196 | 36978 ft | 379 kts | 236° |
| 2026-05-06 15:07 | 39.23363 | -75.19530 | 37237 ft | 378 kts | 236° |
| 2026-05-06 15:07 | 39.21464 | -75.21887 | 37502 ft | 377 kts | 237° |
| 2026-05-06 15:07 | 39.18964 | -75.24994 | 37827 ft | 375 kts | 237° |
| 2026-05-06 15:08 | 39.17716 | -75.26549 | 37900 ft | 375 kts | 237° |
| 2026-05-06 15:08 | 39.13982 | -75.31211 | 37927 ft | 372 kts | 237° |
| 2026-05-06 15:09 | 39.10258 | -75.35863 | 37930 ft | 372 kts | 237° |
| 2026-05-06 15:09 | 39.06499 | -75.40472 | 37921 ft | 379 kts | 232° |
| 2026-05-06 15:09 | 39.04296 | -75.42407 | 37915 ft | 398 kts | 223° |
| 2026-05-06 15:10 | 39.01686 | -75.43835 | 37931 ft | 418 kts | 211° |
| 2026-05-06 15:10 | 38.98759 | -75.44580 | 37931 ft | 439 kts | 201° |
| 2026-05-06 15:10 | 38.95718 | -75.44987 | 37930 ft | 439 kts | 201° |
| 2026-05-06 15:11 | 38.89630 | -75.45797 | 37952 ft | 439 kts | 201° |
| 2026-05-06 15:11 | 38.83576 | -75.46630 | 37954 ft | 441 kts | 201° |
| 2026-05-06 15:12 | 38.77449 | -75.47475 | 37963 ft | 442 kts | 201° |
| 2026-05-06 15:12 | 38.71333 | -75.48310 | 37969 ft | 442 kts | 201° |
| 2026-05-06 15:13 | 38.65200 | -75.49148 | 37949 ft | 442 kts | 201° |
| 2026-05-06 15:13 | 38.59113 | -75.49982 | 37961 ft | 442 kts | 201° |
| 2026-05-06 15:14 | 38.52975 | -75.50811 | 37980 ft | 443 kts | 201° |
| 2026-05-06 15:14 | 38.46841 | -75.51639 | 37984 ft | 443 kts | 201° |
| 2026-05-06 15:15 | 38.40740 | -75.52464 | 37953 ft | 443 kts | 201° |
| 2026-05-06 15:15 | 38.34813 | -75.53877 | 37963 ft | 419 kts | 214° |
| 2026-05-06 15:15 | 38.32159 | -75.55241 | 37966 ft | 403 kts | 222° |
| 2026-05-06 15:16 | 38.29765 | -75.56976 | 37965 ft | 389 kts | 229° |
| 2026-05-06 15:16 | 38.25343 | -75.60853 | 37970 ft | 388 kts | 229° |
| 2026-05-06 15:17 | 38.20881 | -75.64742 | 37949 ft | 389 kts | 229° |
| 2026-05-06 15:17 | 38.16398 | -75.68636 | 37963 ft | 390 kts | 229° |
| 2026-05-06 15:18 | 38.11917 | -75.72523 | 37979 ft | 390 kts | 229° |
| 2026-05-06 15:18 | 38.09674 | -75.74463 | 38301 ft | 384 kts | 229° |
| 2026-05-06 15:18 | 38.07483 | -75.76339 | 38813 ft | 377 kts | 229° |
| 2026-05-06 15:18 | 38.05320 | -75.78202 | 39024 ft | 376 kts | 230° |
| 2026-05-06 15:19 | 38.03194 | -75.80047 | 39210 ft | 375 kts | 230° |
| 2026-05-06 15:19 | 38.01039 | -75.81924 | 39323 ft | 375 kts | 230° |
| 2026-05-06 15:19 | 37.98883 | -75.83803 | 39451 ft | 376 kts | 230° |
| 2026-05-06 15:19 | 37.96716 | -75.85683 | 39574 ft | 377 kts | 230° |
| 2026-05-06 15:20 | 37.94538 | -75.87562 | 39698 ft | 378 kts | 230° |
| 2026-05-06 15:20 | 37.92381 | -75.89419 | 39820 ft | 379 kts | 230° |
| 2026-05-06 15:20 | 37.90199 | -75.91294 | 39971 ft | 379 kts | 230° |
| 2026-05-06 15:21 | 37.85800 | -75.95086 | 39999 ft | 386 kts | 229° |
| 2026-05-06 15:21 | 37.81356 | -75.98917 | 39991 ft | 388 kts | 229° |
| 2026-05-06 15:22 | 37.76856 | -76.02783 | 39998 ft | 392 kts | 229° |
| 2026-05-06 15:22 | 37.72324 | -76.06656 | 39998 ft | 393 kts | 229° |
| 2026-05-06 15:23 | 37.67810 | -76.10499 | 39997 ft | 393 kts | 229° |
| 2026-05-06 15:23 | 37.63257 | -76.14380 | 40011 ft | 394 kts | 229° |
| 2026-05-06 15:24 | 37.58691 | -76.18214 | 40023 ft | 395 kts | 227° |
| 2026-05-06 15:24 | 37.53993 | -76.21799 | 40021 ft | 397 kts | 226° |
| 2026-05-06 15:25 | 37.49213 | -76.25331 | 40023 ft | 396 kts | 226° |
| 2026-05-06 15:25 | 37.44482 | -76.28876 | 40027 ft | 395 kts | 226° |
| 2026-05-06 15:26 | 37.39780 | -76.32435 | 40025 ft | 394 kts | 226° |
| 2026-05-06 15:26 | 37.35076 | -76.36003 | 39988 ft | 395 kts | 227° |
| 2026-05-06 15:27 | 37.30369 | -76.39561 | 39990 ft | 397 kts | 226° |
| 2026-05-06 15:27 | 37.25624 | -76.43142 | 40020 ft | 398 kts | 226° |
| 2026-05-06 15:28 | 37.20848 | -76.46731 | 40030 ft | 399 kts | 226° |
| 2026-05-06 15:28 | 37.16076 | -76.50308 | 40008 ft | 400 kts | 226° |
| 2026-05-06 15:29 | 37.11318 | -76.53875 | 40026 ft | 401 kts | 226° |
| 2026-05-06 15:29 | 37.06526 | -76.57465 | 40020 ft | 401 kts | 226° |
| 2026-05-06 15:30 | 37.01729 | -76.61053 | 40027 ft | 401 kts | 226° |
| 2026-05-06 15:30 | 36.96956 | -76.64618 | 40031 ft | 401 kts | 226° |
| 2026-05-06 15:31 | 36.92150 | -76.68200 | 39993 ft | 402 kts | 226° |
| 2026-05-06 15:31 | 36.87320 | -76.71801 | 40020 ft | 405 kts | 226° |
| 2026-05-06 15:32 | 36.80030 | -76.77223 | 40035 ft | 407 kts | 226° |
| 2026-05-06 15:32 | 36.75184 | -76.80816 | 40043 ft | 408 kts | 226° |
| 2026-05-06 15:33 | 36.70287 | -76.84441 | 40023 ft | 409 kts | 226° |
| 2026-05-06 15:33 | 36.65401 | -76.88049 | 40048 ft | 411 kts | 225° |
| 2026-05-06 15:34 | 36.60480 | -76.91684 | 40061 ft | 411 kts | 225° |
| 2026-05-06 15:34 | 36.55549 | -76.95325 | 40048 ft | 412 kts | 225° |
| 2026-05-06 15:35 | 36.50615 | -76.98952 | 40016 ft | 412 kts | 225° |
| 2026-05-06 15:35 | 36.45666 | -77.02584 | 40032 ft | 413 kts | 225° |
| 2026-05-06 15:36 | 36.40732 | -77.06208 | 40045 ft | 415 kts | 225° |
| 2026-05-06 15:36 | 36.35741 | -77.09863 | 40050 ft | 416 kts | 225° |
| 2026-05-06 15:37 | 36.30749 | -77.13523 | 40060 ft | 416 kts | 225° |
| 2026-05-06 15:37 | 36.25798 | -77.17147 | 40040 ft | 416 kts | 224° |
| 2026-05-06 15:38 | 36.20807 | -77.20788 | 40047 ft | 417 kts | 224° |
| 2026-05-06 15:38 | 36.15796 | -77.24440 | 40057 ft | 417 kts | 224° |
| 2026-05-06 15:39 | 36.10787 | -77.28072 | 40064 ft | 416 kts | 224° |
| 2026-05-06 15:39 | 36.05788 | -77.31695 | 40033 ft | 416 kts | 224° |
| 2026-05-06 15:40 | 36.03436 | -77.33680 | 40034 ft | 402 kts | 232° |
| 2026-05-06 15:40 | 36.01246 | -77.35818 | 40037 ft | 403 kts | 232° |
| 2026-05-06 15:40 | 35.96860 | -77.40082 | 40043 ft | 404 kts | 231° |
| 2026-05-06 15:41 | 35.92420 | -77.44371 | 40057 ft | 405 kts | 231° |
| 2026-05-06 15:41 | 35.87977 | -77.48651 | 40063 ft | 405 kts | 231° |
| 2026-05-06 15:42 | 35.83555 | -77.52914 | 40041 ft | 405 kts | 231° |
| 2026-05-06 15:42 | 35.79101 | -77.57199 | 40043 ft | 406 kts | 231° |
| 2026-05-06 15:43 | 35.74642 | -77.61482 | 40060 ft | 407 kts | 231° |
| 2026-05-06 15:43 | 35.70176 | -77.65761 | 40068 ft | 406 kts | 231° |
| 2026-05-06 15:44 | 35.65705 | -77.70045 | 40071 ft | 406 kts | 231° |
| 2026-05-06 15:44 | 35.61281 | -77.74287 | 40044 ft | 406 kts | 231° |
| 2026-05-06 15:45 | 35.56813 | -77.78557 | 40058 ft | 406 kts | 231° |
| 2026-05-06 15:45 | 35.52346 | -77.82819 | 40062 ft | 406 kts | 231° |
| 2026-05-06 15:46 | 35.47900 | -77.87058 | 40072 ft | 407 kts | 231° |
| 2026-05-06 15:46 | 35.43425 | -77.91318 | 40079 ft | 407 kts | 230° |
| 2026-05-06 15:47 | 35.38942 | -77.95573 | 40069 ft | 407 kts | 230° |
| 2026-05-06 15:47 | 35.34458 | -77.99819 | 40081 ft | 407 kts | 230° |
| 2026-05-06 15:48 | 35.29971 | -78.04062 | 40084 ft | 406 kts | 230° |
| 2026-05-06 15:48 | 35.25526 | -78.08268 | 40086 ft | 405 kts | 230° |
| 2026-05-06 15:49 | 35.21062 | -78.12488 | 40078 ft | 405 kts | 230° |
| 2026-05-06 15:49 | 35.16585 | -78.16706 | 40055 ft | 405 kts | 230° |
| 2026-05-06 15:50 | 35.12146 | -78.20890 | 40079 ft | 406 kts | 230° |
| 2026-05-06 15:50 | 35.07661 | -78.25112 | 40091 ft | 406 kts | 230° |
| 2026-05-06 15:51 | 35.03198 | -78.29299 | 40102 ft | 407 kts | 230° |
| 2026-05-06 15:51 | 34.98703 | -78.33511 | 40106 ft | 407 kts | 230° |
| 2026-05-06 15:52 | 34.94218 | -78.37705 | 40087 ft | 407 kts | 230° |
| 2026-05-06 15:52 | 34.90471 | -78.41210 | 40079 ft | 408 kts | 230° |
| 2026-05-06 15:53 | 34.85966 | -78.45436 | 40079 ft | 409 kts | 230° |
| 2026-05-06 15:53 | 34.81433 | -78.49662 | 40081 ft | 410 kts | 230° |
| 2026-05-06 15:54 | 34.76911 | -78.53865 | 40099 ft | 410 kts | 230° |
| 2026-05-06 15:54 | 34.72364 | -78.58097 | 40113 ft | 411 kts | 230° |
| 2026-05-06 15:55 | 34.67855 | -78.62288 | 40097 ft | 411 kts | 230° |
| 2026-05-06 15:55 | 34.63295 | -78.66514 | 40103 ft | 412 kts | 230° |
| 2026-05-06 15:56 | 34.58723 | -78.70745 | 40119 ft | 412 kts | 230° |
| 2026-05-06 15:56 | 34.54195 | -78.74933 | 40123 ft | 411 kts | 230° |
| 2026-05-06 15:57 | 34.49645 | -78.79137 | 40099 ft | 410 kts | 230° |
| 2026-05-06 15:57 | 34.45088 | -78.83320 | 40076 ft | 410 kts | 230° |
| 2026-05-06 15:58 | 34.40474 | -78.87417 | 40090 ft | 413 kts | 228° |
| 2026-05-06 15:58 | 34.35718 | -78.91381 | 40093 ft | 415 kts | 227° |
| 2026-05-06 15:59 | 34.30984 | -78.95302 | 40099 ft | 414 kts | 227° |
| 2026-05-06 15:59 | 34.26243 | -78.99271 | 40103 ft | 414 kts | 227° |
| 2026-05-06 16:00 | 34.21516 | -79.03249 | 40076 ft | 413 kts | 227° |
| 2026-05-06 16:00 | 34.16815 | -79.07210 | 40098 ft | 414 kts | 227° |
| 2026-05-06 16:01 | 34.12089 | -79.11175 | 40112 ft | 413 kts | 227° |
| 2026-05-06 16:01 | 34.07363 | -79.15131 | 40114 ft | 412 kts | 227° |
| 2026-05-06 16:02 | 34.02647 | -79.19063 | 40114 ft | 412 kts | 227° |
| 2026-05-06 16:02 | 33.97939 | -79.22994 | 40096 ft | 411 kts | 227° |
| 2026-05-06 16:03 | 33.93237 | -79.26926 | 40107 ft | 411 kts | 227° |
| 2026-05-06 16:03 | 33.88559 | -79.30824 | 40111 ft | 411 kts | 227° |
| 2026-05-06 16:04 | 33.83849 | -79.34746 | 40113 ft | 411 kts | 227° |
| 2026-05-06 16:04 | 33.79139 | -79.38666 | 40113 ft | 411 kts | 227° |
| 2026-05-06 16:05 | 33.74455 | -79.42558 | 40073 ft | 411 kts | 227° |
| 2026-05-06 16:05 | 33.69734 | -79.46464 | 40094 ft | 411 kts | 228° |
| 2026-05-06 16:06 | 33.65040 | -79.50339 | 40104 ft | 411 kts | 228° |
| 2026-05-06 16:06 | 33.60330 | -79.54236 | 40121 ft | 411 kts | 228° |
| 2026-05-06 16:07 | 33.55620 | -79.58130 | 40111 ft | 411 kts | 228° |
| 2026-05-06 16:07 | 33.50903 | -79.62016 | 40070 ft | 411 kts | 228° |
| 2026-05-06 16:08 | 33.46178 | -79.65901 | 40086 ft | 412 kts | 228° |
| 2026-05-06 16:08 | 33.41448 | -79.69801 | 40094 ft | 413 kts | 228° |
| 2026-05-06 16:09 | 33.36731 | -79.73671 | 40100 ft | 413 kts | 228° |
| 2026-05-06 16:09 | 33.31975 | -79.77555 | 40108 ft | 414 kts | 228° |
| 2026-05-06 16:10 | 33.27220 | -79.81446 | 40123 ft | 413 kts | 228° |
| 2026-05-06 16:10 | 33.22477 | -79.85324 | 40121 ft | 412 kts | 228° |
| 2026-05-06 16:11 | 33.17769 | -79.89167 | 40131 ft | 411 kts | 228° |
| 2026-05-06 16:11 | 33.13049 | -79.93008 | 40134 ft | 410 kts | 228° |
| 2026-05-06 16:12 | 33.08331 | -79.96848 | 40133 ft | 410 kts | 228° |
| 2026-05-06 16:12 | 33.03614 | -80.00687 | 40139 ft | 409 kts | 228° |
| 2026-05-06 16:13 | 32.98905 | -80.04507 | 40142 ft | 409 kts | 228° |
| 2026-05-06 16:13 | 32.94220 | -80.08314 | 40141 ft | 409 kts | 228° |
| 2026-05-06 16:14 | 32.89508 | -80.12137 | 40141 ft | 409 kts | 228° |
| 2026-05-06 16:14 | 32.84815 | -80.15925 | 40139 ft | 409 kts | 228° |
| 2026-05-06 16:15 | 32.80090 | -80.19736 | 40143 ft | 408 kts | 228° |
| 2026-05-06 16:15 | 32.75401 | -80.23512 | 40123 ft | 407 kts | 227° |
| 2026-05-06 16:16 | 32.70713 | -80.27295 | 40132 ft | 406 kts | 228° |
| 2026-05-06 16:16 | 32.66062 | -80.31042 | 40137 ft | 406 kts | 227° |
| 2026-05-06 16:17 | 32.61381 | -80.34806 | 40130 ft | 406 kts | 227° |
| 2026-05-06 16:17 | 32.56660 | -80.38542 | 40134 ft | 409 kts | 226° |
| 2026-05-06 16:18 | 32.51740 | -80.41960 | 40106 ft | 414 kts | 223° |
| 2026-05-06 16:18 | 32.46662 | -80.45256 | 40117 ft | 415 kts | 222° |
| 2026-05-06 16:19 | 32.41639 | -80.48566 | 40123 ft | 414 kts | 223° |
| 2026-05-06 16:19 | 32.36624 | -80.51942 | 40127 ft | 414 kts | 223° |
| 2026-05-06 16:20 | 32.31620 | -80.55331 | 40139 ft | 414 kts | 223° |
| 2026-05-06 16:20 | 32.26646 | -80.58683 | 40110 ft | 413 kts | 223° |
| 2026-05-06 16:21 | 32.21658 | -80.62032 | 40114 ft | 412 kts | 223° |
| 2026-05-06 16:21 | 32.16664 | -80.65375 | 40157 ft | 412 kts | 223° |
| 2026-05-06 16:22 | 32.11674 | -80.68708 | 40155 ft | 412 kts | 223° |
| 2026-05-06 16:22 | 32.06687 | -80.72043 | 40150 ft | 411 kts | 223° |
| 2026-05-06 16:23 | 32.01725 | -80.75353 | 40138 ft | 412 kts | 223° |
| 2026-05-06 16:23 | 31.96739 | -80.78679 | 40105 ft | 412 kts | 223° |
| 2026-05-06 16:24 | 31.91740 | -80.82013 | 40101 ft | 412 kts | 222° |
| 2026-05-06 16:24 | 31.86730 | -80.85340 | 40107 ft | 413 kts | 222° |
| 2026-05-06 16:25 | 31.81754 | -80.88648 | 40116 ft | 413 kts | 222° |
| 2026-05-06 16:25 | 31.76750 | -80.91970 | 40100 ft | 413 kts | 222° |
| 2026-05-06 16:26 | 31.71776 | -80.95270 | 40097 ft | 412 kts | 222° |
| 2026-05-06 16:26 | 31.66769 | -80.98585 | 40107 ft | 412 kts | 222° |
| 2026-05-06 16:27 | 31.61777 | -81.01875 | 40116 ft | 412 kts | 222° |
| 2026-05-06 16:27 | 31.56763 | -81.05156 | 40119 ft | 414 kts | 221° |
| 2026-05-06 16:28 | 31.51653 | -81.08310 | 40125 ft | 416 kts | 220° |
| 2026-05-06 16:28 | 31.46501 | -81.11412 | 40107 ft | 416 kts | 220° |
| 2026-05-06 16:29 | 31.41355 | -81.14530 | 40125 ft | 416 kts | 220° |
| 2026-05-06 16:29 | 31.36216 | -81.17659 | 40129 ft | 416 kts | 220° |
| 2026-05-06 16:30 | 31.31925 | -81.20231 | 40131 ft | 417 kts | 219° |
| 2026-05-06 16:30 | 31.25905 | -81.23796 | 40131 ft | 417 kts | 219° |
| 2026-05-06 16:31 | 31.23597 | -81.25157 | 40135 ft | 0 kts | 219° |
| 2026-05-06 16:31 | 31.22212 | -81.26402 | 40230 ft | 409 kts | 225° |
| 2026-05-06 16:31 | 31.19558 | -81.27837 | 40101 ft | 436 kts | 204° |
| 2026-05-06 16:31 | 31.16475 | -81.28270 | 40116 ft | 457 kts | 192° |
| 2026-05-06 16:32 | 31.10030 | -81.27999 | 40118 ft | 462 kts | 191° |
| 2026-05-06 16:32 | 31.03621 | -81.28070 | 40118 ft | 459 kts | 193° |
| 2026-05-06 16:33 | 30.97268 | -81.28215 | 40113 ft | 460 kts | 192° |
| 2026-05-06 16:34 | 30.87628 | -81.28228 | 40058 ft | 463 kts | 191° |
| 2026-05-06 16:34 | 30.84373 | -81.28207 | 39297 ft | 471 kts | 191° |
| 2026-05-06 16:34 | 30.81123 | -81.28193 | 38199 ft | 473 kts | 190° |
| 2026-05-06 16:34 | 30.77828 | -81.28178 | 37249 ft | 473 kts | 190° |
| 2026-05-06 16:35 | 30.74536 | -81.28162 | 36560 ft | 474 kts | 189° |
| 2026-05-06 16:35 | 30.71239 | -81.28148 | 36059 ft | 471 kts | 189° |
| 2026-05-06 16:35 | 30.67945 | -81.28133 | 35487 ft | 469 kts | 189° |
| 2026-05-06 16:35 | 30.64726 | -81.28123 | 34911 ft | 467 kts | 189° |
| 2026-05-06 16:36 | 30.61471 | -81.28114 | 34358 ft | 466 kts | 189° |
| 2026-05-06 16:36 | 30.58225 | -81.28063 | 33793 ft | 467 kts | 187° |
| 2026-05-06 16:36 | 30.54984 | -81.27891 | 33370 ft | 463 kts | 185° |
| 2026-05-06 16:36 | 30.51770 | -81.27632 | 32910 ft | 460 kts | 184° |
| 2026-05-06 16:37 | 30.49667 | -81.27436 | 32615 ft | 457 kts | 184° |
| 2026-05-06 16:37 | 30.45477 | -81.27034 | 32030 ft | 452 kts | 184° |
| 2026-05-06 16:37 | 30.42353 | -81.26754 | 31593 ft | 448 kts | 184° |
| 2026-05-06 16:37 | 30.39254 | -81.26500 | 31173 ft | 444 kts | 184° |
| 2026-05-06 16:38 | 30.37165 | -81.26341 | 30863 ft | 442 kts | 185° |
| 2026-05-06 16:38 | 30.34147 | -81.26123 | 30442 ft | 439 kts | 185° |
| 2026-05-06 16:38 | 30.31107 | -81.25906 | 29986 ft | 436 kts | 184° |
| 2026-05-06 16:38 | 30.28093 | -81.25689 | 29550 ft | 432 kts | 184° |
| 2026-05-06 16:39 | 30.25093 | -81.25470 | 29129 ft | 429 kts | 184° |
| 2026-05-06 16:39 | 30.22126 | -81.25253 | 28710 ft | 425 kts | 184° |
| 2026-05-06 16:39 | 30.19178 | -81.25034 | 28301 ft | 422 kts | 184° |
| 2026-05-06 16:39 | 30.16255 | -81.24815 | 27894 ft | 419 kts | 184° |
| 2026-05-06 16:40 | 30.13397 | -81.24599 | 27491 ft | 415 kts | 184° |
| 2026-05-06 16:40 | 30.10524 | -81.24382 | 27076 ft | 412 kts | 183° |
| 2026-05-06 16:40 | 30.07667 | -81.24167 | 26696 ft | 409 kts | 183° |
| 2026-05-06 16:40 | 30.04832 | -81.23952 | 26304 ft | 406 kts | 183° |
| 2026-05-06 16:41 | 30.02009 | -81.23741 | 25907 ft | 403 kts | 183° |
| 2026-05-06 16:41 | 29.99213 | -81.23536 | 25515 ft | 400 kts | 182° |
| 2026-05-06 16:41 | 29.96442 | -81.23329 | 25131 ft | 398 kts | 182° |
| 2026-05-06 16:41 | 29.93690 | -81.23123 | 24742 ft | 395 kts | 182° |
| 2026-05-06 16:42 | 29.90953 | -81.22919 | 24360 ft | 392 kts | 182° |
| 2026-05-06 16:42 | 29.88236 | -81.22719 | 23978 ft | 389 kts | 182° |
| 2026-05-06 16:42 | 29.85572 | -81.22524 | 23578 ft | 387 kts | 182° |
| 2026-05-06 16:42 | 29.82889 | -81.22325 | 23175 ft | 384 kts | 182° |
| 2026-05-06 16:43 | 29.80232 | -81.22129 | 22800 ft | 382 kts | 181° |
| 2026-05-06 16:43 | 29.77575 | -81.21931 | 22430 ft | 380 kts | 181° |
| 2026-05-06 16:43 | 29.74950 | -81.21737 | 22060 ft | 378 kts | 182° |
| 2026-05-06 16:43 | 29.72325 | -81.21544 | 21684 ft | 376 kts | 182° |
| 2026-05-06 16:44 | 29.69719 | -81.21350 | 21326 ft | 374 kts | 181° |
| 2026-05-06 16:44 | 29.67123 | -81.21140 | 20960 ft | 372 kts | 181° |
| 2026-05-06 16:44 | 29.64577 | -81.20921 | 20598 ft | 371 kts | 181° |
| 2026-05-06 16:44 | 29.62008 | -81.20694 | 20240 ft | 369 kts | 181° |
| 2026-05-06 16:45 | 29.59454 | -81.20467 | 19881 ft | 367 kts | 181° |
| 2026-05-06 16:45 | 29.56898 | -81.20242 | 19518 ft | 366 kts | 181° |
| 2026-05-06 16:45 | 29.54365 | -81.20021 | 19162 ft | 364 kts | 181° |
| 2026-05-06 16:45 | 29.51840 | -81.19804 | 18822 ft | 362 kts | 180° |
| 2026-05-06 16:46 | 29.49362 | -81.19593 | 18480 ft | 361 kts | 180° |
| 2026-05-06 16:46 | 29.46853 | -81.19380 | 18031 ft | 361 kts | 180° |
| 2026-05-06 16:46 | 29.44339 | -81.19170 | 17624 ft | 360 kts | 180° |
| 2026-05-06 16:46 | 29.41849 | -81.18959 | 17273 ft | 357 kts | 180° |
| 2026-05-06 16:47 | 29.39380 | -81.18746 | 16920 ft | 354 kts | 179° |
| 2026-05-06 16:47 | 29.36954 | -81.18535 | 16587 ft | 352 kts | 179° |
| 2026-05-06 16:47 | 29.34518 | -81.18320 | 16244 ft | 350 kts | 179° |
| 2026-05-06 16:47 | 29.32093 | -81.18108 | 15902 ft | 348 kts | 179° |
| 2026-05-06 16:48 | 29.29682 | -81.17901 | 15569 ft | 347 kts | 179° |
| 2026-05-06 16:48 | 29.27275 | -81.17697 | 15228 ft | 345 kts | 179° |
| 2026-05-06 16:48 | 29.24908 | -81.17493 | 14894 ft | 344 kts | 178° |
| 2026-05-06 16:48 | 29.22522 | -81.17285 | 14556 ft | 343 kts | 178° |
| 2026-05-06 16:49 | 29.20146 | -81.17072 | 14223 ft | 342 kts | 176° |
| 2026-05-06 16:49 | 29.17814 | -81.16528 | 13888 ft | 342 kts | 162° |
| 2026-05-06 16:49 | 29.15583 | -81.15583 | 13559 ft | 339 kts | 160° |
| 2026-05-06 16:49 | 29.13378 | -81.14638 | 13249 ft | 336 kts | 160° |
| 2026-05-06 16:50 | 29.11200 | -81.13710 | 12939 ft | 333 kts | 160° |
| 2026-05-06 16:50 | 29.09027 | -81.12785 | 12637 ft | 330 kts | 160° |
| 2026-05-06 16:50 | 29.06891 | -81.11874 | 12338 ft | 326 kts | 160° |
| 2026-05-06 16:50 | 29.04772 | -81.10970 | 12039 ft | 323 kts | 160° |
| 2026-05-06 16:51 | 29.02698 | -81.10119 | 11753 ft | 319 kts | 161° |
| 2026-05-06 16:51 | 29.00590 | -81.09312 | 11459 ft | 317 kts | 162° |
| 2026-05-06 16:51 | 28.98499 | -81.08535 | 11162 ft | 313 kts | 162° |
| 2026-05-06 16:51 | 28.96379 | -81.08009 | 10813 ft | 312 kts | 174° |
| 2026-05-06 16:52 | 28.94189 | -81.07760 | 10245 ft | 318 kts | 174° |
| 2026-05-06 16:52 | 28.91966 | -81.07507 | 9676 ft | 323 kts | 174° |
| 2026-05-06 16:52 | 28.89748 | -81.07391 | 9120 ft | 319 kts | 185° |
| 2026-05-06 16:52 | 28.87617 | -81.07908 | 8597 ft | 307 kts | 201° |
| 2026-05-06 16:53 | 28.85756 | -81.09006 | 8100 ft | 295 kts | 216° |
| 2026-05-06 16:53 | 28.84090 | -81.10300 | 7726 ft | 282 kts | 213° |
| 2026-05-06 16:53 | 28.82483 | -81.11418 | 7648 ft | 259 kts | 211° |
| 2026-05-06 16:53 | 28.80975 | -81.12410 | 7588 ft | 243 kts | 210° |
| 2026-05-06 16:54 | 28.79529 | -81.13346 | 7534 ft | 241 kts | 210° |
| 2026-05-06 16:54 | 28.78070 | -81.14292 | 7370 ft | 241 kts | 211° |
| 2026-05-06 16:54 | 28.76616 | -81.15244 | 7082 ft | 241 kts | 211° |
| 2026-05-06 16:54 | 28.75160 | -81.16204 | 6761 ft | 241 kts | 211° |
| 2026-05-06 16:55 | 28.73694 | -81.17174 | 6439 ft | 246 kts | 211° |
| 2026-05-06 16:55 | 28.72206 | -81.18159 | 6075 ft | 247 kts | 210° |
| 2026-05-06 16:55 | 28.70723 | -81.19139 | 5743 ft | 247 kts | 210° |
| 2026-05-06 16:55 | 28.69254 | -81.20114 | 5404 ft | 247 kts | 210° |
| 2026-05-06 16:56 | 28.67776 | -81.21091 | 5070 ft | 245 kts | 210° |
| 2026-05-06 16:56 | 28.66302 | -81.22068 | 4728 ft | 245 kts | 209° |
| 2026-05-06 16:56 | 28.64819 | -81.23051 | 4387 ft | 247 kts | 209° |
| 2026-05-06 16:56 | 28.63339 | -81.24033 | 4075 ft | 245 kts | 208° |
| 2026-05-06 16:57 | 28.61876 | -81.25000 | 3992 ft | 237 kts | 209° |
| 2026-05-06 16:57 | 28.60526 | -81.25894 | 3934 ft | 220 kts | 210° |
| 2026-05-06 16:57 | 28.59209 | -81.26766 | 3374 ft | 219 kts | 209° |
| 2026-05-06 16:57 | 28.57909 | -81.27626 | 2870 ft | 211 kts | 210° |
| 2026-05-06 16:58 | 28.56606 | -81.28278 | 2489 ft | 199 kts | 190° |
| 2026-05-06 16:58 | 28.55303 | -81.28368 | 2218 ft | 179 kts | 179° |
| 2026-05-06 16:58 | 28.54122 | -81.28357 | 2000 ft | 157 kts | 178° |
| 2026-05-06 16:58 | 28.53095 | -81.28347 | 1792 ft | 143 kts | 179° |
| 2026-05-06 16:59 | 28.52116 | -81.28337 | 1594 ft | 138 kts | 180° |
| 2026-05-06 16:59 | 28.51170 | -81.28328 | 1405 ft | 134 kts | 178° |
| 2026-05-06 16:59 | 28.50225 | -81.28318 | 1246 ft | 134 kts | 179° |
| 2026-05-06 16:59 | 28.49302 | -81.28309 | 1077 ft | 131 kts | 179° |
| 2026-05-06 17:00 | 28.48388 | -81.28299 | 913 ft | 131 kts | 178° |
| 2026-05-06 17:00 | 28.47471 | -81.28290 | 740 ft | 136 kts | 180° |
| 2026-05-06 17:00 | 28.46538 | -81.28281 | 573 ft | 131 kts | 177° |
| 2026-05-06 17:00 | 28.45640 | -81.28271 | 366 ft | 131 kts | 177° |
| 2026-05-06 17:01 | 28.44728 | -81.28262 | 202 ft | 130 kts | 179° |
| 2026-05-06 17:01 | 28.44006 | -81.28254 | 103 ft | 123 kts | 179° |
| 2026-05-06 17:01 | 28.43429 | -81.28248 | 95 ft | 57 kts | 179° |
| 2026-05-06 17:01 | 28.43234 | -81.28246 | 97 ft | 25 kts | 178° |
| 2026-05-06 17:02 | 28.43063 | -81.28239 | 95 ft | 26 kts | 180° |
| 2026-05-06 17:02 | 28.42935 | -81.28242 | 99 ft | 4 kts | 185° |
| 2026-05-06 17:02 | 28.42839 | -81.28242 | 97 ft | 27 kts | 178° |
| 2026-05-06 17:02 | 28.42647 | -81.28247 | 100 ft | 24 kts | 191° |
| 2026-05-06 17:03 | 28.42541 | -81.28310 | 98 ft | 12 kts | 234° |
| 2026-05-06 17:03 | 28.42531 | -81.28335 | 97 ft | 1 kts | 246° |
| 2026-05-06 17:03 | 28.42524 | -81.28352 | 96 ft | 3 kts | 246° |
| 2026-05-06 17:03 | 28.42518 | -81.28366 | 97 ft | 0 kts | 246° |
| 2026-05-06 17:07 | 28.42512 | -81.28384 | 96 ft | 14 kts | 248° |
| 2026-05-06 17:07 | 28.42468 | -81.28515 | 96 ft | 10 kts | 246° |